»·PEaware :: N7357K KPDX-KEUG

N7357K :: KPDX-KEUG

FLIGHT INFORMATION

Flight Status: Arrived
Operator: Privately registered:
United States
More flights under this callsign
Pilot: Steve F. (18480)
Aircraft: BEECH AIRCRAFT BARON
(BE58)
More flights by this aircraft type
Origin: KPDX Portland Intl
United States
Destination: KEUG Mahlon Sweet
United States
More flights between these airports :: More routes between these airports
Route: +BTG V23 EUG
File this flight plan on PilotEdge
Remarks:
Altitude:
(Current/Filed)
6,000ft
Speed:
(Current/Filed)
170kts
Departed: 15-Jul-18 06:45 PM
Arrived: 15-Jul-18 07:25 PM
Distance/Time
Traveled:
91nm/0:39
Distance/Time
To Go:
Arrived

Flight Plot

Page will automatically refresh every two minutes.

Flight plan parsing failed; only flown route is shown


Map Options




Map Legend


Flown Route
Filed Route
Departure Airport
Arrival Airport
Navaid (VOR, NDB)
Fix

Horizontal Profiles

Position Reports

Time Latitude Longitude Heading Altitude Ground
Speed
15-Jul-18 18:31 45.587435 -122.583524 208 17ft 0kts
15-Jul-18 18:32 45.587435 -122.583524 208 17ft 0kts
15-Jul-18 18:33 45.587435 -122.583524 208 17ft 0kts
15-Jul-18 18:34 45.587435 -122.583524 208 17ft 0kts
15-Jul-18 18:35 45.587435 -122.583524 208 17ft 0kts
15-Jul-18 18:36 45.587435 -122.583524 208 17ft 0kts
15-Jul-18 18:37 45.587435 -122.583524 208 17ft 0kts
15-Jul-18 18:38 45.587435 -122.583524 208 17ft 0kts
15-Jul-18 18:39 45.587435 -122.583524 208 17ft 0kts
15-Jul-18 18:40 45.587435 -122.583524 208 17ft 0kts
15-Jul-18 18:41 45.587433 -122.583526 208 17ft 0kts
15-Jul-18 18:42 45.587662 -122.580536 117 17ft 21kts
15-Jul-18 18:43 45.583845 -122.570647 119 17ft 33kts
15-Jul-18 18:44 45.582841 -122.568110 119 17ft 0kts
15-Jul-18 18:45 45.582841 -122.568110 119 17ft 0kts
15-Jul-18 18:46 45.585772 -122.572565 299 17ft 87kts
15-Jul-18 18:47 45.600843 -122.609160 299 1078ft 105kts
15-Jul-18 18:48 45.611974 -122.647653 288 2165ft 110kts
15-Jul-18 18:49 45.621622 -122.689537 281 3252ft 102kts
15-Jul-18 18:50 45.595175 -122.704194 180 3874ft 131kts
15-Jul-18 18:51 45.558898 -122.704233 184 4569ft 133kts
15-Jul-18 18:52 45.520933 -122.706961 184 5499ft 137kts
15-Jul-18 18:53 45.481269 -122.709905 184 5997ft 161kts
15-Jul-18 18:54 45.433899 -122.717148 191 5987ft 177kts
15-Jul-18 18:55 45.386823 -122.734616 196 5992ft 172kts
15-Jul-18 18:56 45.340825 -122.752890 195 6001ft 173kts
15-Jul-18 18:57 45.293915 -122.771371 195 6007ft 177kts
15-Jul-18 18:58 45.246322 -122.790056 195 6010ft 177kts
15-Jul-18 18:59 45.198721 -122.808710 195 6010ft 178kts
15-Jul-18 19:00 45.151263 -122.827278 195 6010ft 178kts
15-Jul-18 19:01 45.103386 -122.845972 195 6009ft 178kts
15-Jul-18 19:02 45.055793 -122.864514 196 6004ft 178kts
15-Jul-18 19:03 45.007764 -122.883203 196 5998ft 178kts
15-Jul-18 19:04 44.960009 -122.901754 197 5984ft 179kts
15-Jul-18 19:05 44.912334 -122.921266 200 5982ft 176kts
15-Jul-18 19:06 44.866262 -122.942396 200 5982ft 175kts
15-Jul-18 19:07 44.819378 -122.960978 196 5982ft 175kts
15-Jul-18 19:08 44.772400 -122.977588 196 5984ft 175kts
15-Jul-18 19:09 44.725450 -122.994168 196 5988ft 174kts
15-Jul-18 19:10 44.678435 -123.010745 197 5993ft 174kts
15-Jul-18 19:11 44.631442 -123.028650 198 5855ft 181kts
15-Jul-18 19:12 44.581520 -123.047800 198 5391ft 189kts
15-Jul-18 19:13 44.534177 -123.065907 199 4998ft 189kts
15-Jul-18 19:14 44.479672 -123.087188 199 4622ft 192kts
15-Jul-18 19:15 44.428172 -123.099929 191 4440ft 186kts
15-Jul-18 19:16 44.376994 -123.112178 197 3999ft 188kts
15-Jul-18 19:17 44.329999 -123.137121 200 4142ft 173kts
15-Jul-18 19:18 44.285420 -123.153280 188 3954ft 150kts
15-Jul-18 19:19 44.247005 -123.157689 182 3376ft 113kts
15-Jul-18 19:20 44.214955 -123.163823 189 2693ft 121kts
15-Jul-18 19:21 44.181437 -123.173355 188 1931ft 125kts
15-Jul-18 19:22 44.147638 -123.181875 188 1313ft 121kts
15-Jul-18 19:23 44.115558 -123.189011 180 1090ft 121kts
15-Jul-18 19:24 44.086841 -123.202534 260 910ft 124kts
15-Jul-18 19:25 44.113391 -123.201758 352 575ft 111kts
15-Jul-18 19:26 44.126416 -123.203783 268 361ft 0kts
15-Jul-18 19:27 44.126393 -123.207460 268 359ft 28kts

Navigation Log

Ident Type
Flight plan parsing failed, navigation log unavailable